Time;durP1;ratioP1;P1;durP2;ratioP2;P2;SDS_P1;SDS_P2;PMS_P1;PMS_P2;Temp;Humidity;BMP_temperature;BMP_pressure;BME280_temperature;BME280_humidity;BME280_pressure;Samples;Min_cycle;Max_cycle;Signal;HPM_P1;HPM_P2
2023/03/07 00:02:08;;;;;;;73.57;50.58;;;15.80;55.30;;;;;;4951103;28;85726;-50
2023/03/07 00:04:33;;;;;;;71.63;49.83;;;15.70;55.20;;;;;;4950386;28;85819;-51
2023/03/07 00:06:59;;;;;;;71.50;49.75;;;15.70;55.20;;;;;;4947989;28;86121;-50
2023/03/07 00:09:25;;;;;;;70.35;49.45;;;15.70;55.30;;;;;;4941235;28;86911;-51
2023/03/07 00:11:51;;;;;;;71.22;49.83;;;15.70;55.30;;;;;;4952494;28;86259;-51
2023/03/07 00:14:17;;;;;;;71.97;49.63;;;15.70;55.30;;;;;;4941021;28;87913;-49
2023/03/07 00:16:43;;;;;;;71.07;50.00;;;15.70;55.30;;;;;;4949782;28;85736;-51
2023/03/07 00:19:09;;;;;;;72.15;50.03;;;15.60;55.20;;;;;;4954652;28;87445;-51
2023/03/07 00:21:34;;;;;;;72.15;50.47;;;15.60;55.30;;;;;;4945781;28;86633;-51
2023/03/07 00:24:00;;;;;;;71.57;49.95;;;15.60;55.30;;;;;;4946152;28;86508;-51
2023/03/07 00:26:26;;;;;;;70.88;50.05;;;15.60;55.40;;;;;;4953897;28;87747;-51
2023/03/07 00:28:53;;;;;;;71.22;49.90;;;15.60;55.20;;;;;;4950075;28;85392;-52
2023/03/07 00:31:20;;;;;;;72.18;49.95;;;15.60;55.20;;;;;;4953613;28;86603;-49
2023/03/07 00:33:45;;;;;;;70.90;50.15;;;15.60;55.20;;;;;;4948077;28;86869;-52
2023/03/07 00:36:29;;;;;;;70.80;50.13;;;15.60;55.20;;;;;;4950378;28;86144;-53
2023/03/07 00:38:55;;;;;;;72.25;50.15;;;15.60;55.10;;;;;;4952569;28;85915;-49
2023/03/07 00:41:23;;;;;;;71.15;49.92;;;15.60;55.20;;;;;;4951083;27;88540;-52
2023/03/07 00:43:50;;;;;;;70.45;49.72;;;15.60;55.10;;;;;;4950276;28;89676;-50
2023/03/07 00:46:17;;;;;;;71.22;49.95;;;15.60;55.10;;;;;;4949034;28;85995;-49
2023/03/07 00:48:44;;;;;;;70.15;49.80;;;15.60;55.20;;;;;;4946070;28;87256;-51
2023/03/07 00:51:12;;;;;;;71.10;50.13;;;15.60;55.10;;;;;;4944357;28;86788;-52
2023/03/07 00:53:38;;;;;;;69.85;49.45;;;15.60;55.10;;;;;;4951024;27;86361;-51
2023/03/07 00:56:13;;;;;;;71.55;50.15;;;15.50;55.10;;;;;;4952160;28;85529;-52
2023/03/07 00:58:39;;;;;;;70.03;49.95;;;15.50;55.20;;;;;;4949949;28;87473;-50
2023/03/07 01:01:07;;;;;;;69.65;50.08;;;15.50;55.20;;;;;;4948835;28;86015;-50
2023/03/07 01:03:34;;;;;;;71.07;49.72;;;15.40;55.20;;;;;;4943866;28;86240;-51
2023/03/07 01:06:05;;;;;;;70.45;49.72;;;15.40;55.40;;;;;;4954844;28;87040;-52
2023/03/07 01:08:31;;;;;;;72.45;50.53;;;15.40;55.30;;;;;;4952351;28;85758;-50
2023/03/07 01:10:59;;;;;;;70.43;49.90;;;15.40;55.30;;;;;;4959548;28;86982;-51
2023/03/07 01:13:25;;;;;;;70.82;49.67;;;15.40;55.50;;;;;;4951641;28;85959;-50
2023/03/07 01:15:51;;;;;;;70.63;49.85;;;15.40;55.40;;;;;;4957879;28;85704;-50
2023/03/07 01:18:17;;;;;;;71.13;49.92;;;15.40;55.30;;;;;;4944283;28;90648;-50
2023/03/07 01:20:43;;;;;;;70.05;49.50;;;15.30;55.20;;;;;;4950659;28;87515;-50
2023/03/07 01:23:08;;;;;;;70.45;49.40;;;15.30;55.40;;;;;;4944242;28;86389;-49
2023/03/07 01:25:39;;;;;;;71.32;50.35;;;15.30;55.30;;;;;;4942422;28;86171;-48
2023/03/07 01:28:05;;;;;;;70.63;49.97;;;15.30;55.30;;;;;;4950376;28;85917;-48
2023/03/07 01:30:31;;;;;;;71.35;50.28;;;15.40;55.40;;;;;;4954911;28;86116;-47
2023/03/07 01:32:58;;;;;;;70.68;49.65;;;15.30;55.30;;;;;;4963879;28;92105;-51
2023/03/07 01:35:24;;;;;;;70.13;49.50;;;15.30;55.20;;;;;;4948916;28;91580;-49
2023/03/07 01:37:51;;;;;;;71.85;50.35;;;15.30;55.40;;;;;;4948506;28;88178;-47
2023/03/07 01:40:18;;;;;;;72.18;49.97;;;15.30;55.30;;;;;;4942024;28;86951;-49
2023/03/07 01:42:44;;;;;;;71.00;50.33;;;15.30;55.30;;;;;;4934396;28;87483;-51
2023/03/07 01:45:12;;;;;;;71.55;50.05;;;15.30;55.40;;;;;;4948936;28;88658;-50
2023/03/07 01:47:45;;;;;;;69.55;49.70;;;15.30;55.30;;;;;;4949715;28;86361;-51
2023/03/07 01:50:15;;;;;;;69.35;49.97;;;15.30;55.30;;;;;;4938720;28;91252;-51
2023/03/07 01:52:44;;;;;;;69.90;50.15;;;15.20;55.40;;;;;;4947502;28;87873;-51
2023/03/07 01:55:42;;;;;;;71.32;50.28;;;15.20;55.30;;;;;;4948519;28;88638;-49
2023/03/07 01:58:11;;;;;;;70.15;49.97;;;15.20;55.30;;;;;;4952291;28;91524;-48
2023/03/07 02:00:39;;;;;;;71.68;49.63;;;15.20;55.30;;;;;;4950312;28;86140;-51
2023/03/07 02:03:11;;;;;;;70.85;50.13;;;15.20;55.20;;;;;;4944454;28;88202;-52
2023/03/07 02:06:00;;;;;;;70.10;49.90;;;15.20;55.40;;;;;;4943077;28;85681;-52
2023/03/07 02:08:28;;;;;;;70.32;50.25;;;15.20;55.30;;;;;;4948980;28;85932;-50
2023/03/07 02:10:54;;;;;;;69.70;49.75;;;15.20;55.30;;;;;;4951930;28;87010;-50
2023/03/07 02:13:20;;;;;;;69.00;49.53;;;15.20;55.30;;;;;;4947540;28;86246;-50
2023/03/07 02:15:46;;;;;;;69.28;49.58;;;15.10;55.30;;;;;;4947500;28;85737;-47
2023/03/07 02:18:16;;;;;;;71.50;49.92;;;15.10;55.40;;;;;;4952779;28;86313;-48
2023/03/07 02:20:55;;;;;;;69.90;50.38;;;15.10;55.50;;;;;;4951027;28;87116;-49
2023/03/07 02:23:24;;;;;;;69.85;50.25;;;15.10;55.40;;;;;;4948426;28;87180;-49
2023/03/07 02:26:03;;;;;;;70.55;50.10;;;15.10;55.40;;;;;;4947846;28;88208;-49
2023/03/07 02:28:29;;;;;;;70.55;50.20;;;15.10;55.40;;;;;;4955500;28;85879;-51
2023/03/07 02:30:57;;;;;;;71.63;49.92;;;15.10;55.40;;;;;;4949876;28;87947;-50
2023/03/07 02:33:23;;;;;;;69.13;49.63;;;15.10;55.40;;;;;;4933764;28;86830;-52
2023/03/07 02:35:54;;;;;;;69.95;50.08;;;15.10;55.40;;;;;;4944268;28;87039;-52
2023/03/07 02:38:21;;;;;;;69.78;49.92;;;15.10;55.30;;;;;;4945783;28;86038;-50
2023/03/07 02:40:48;;;;;;;70.05;49.45;;;15.10;55.30;;;;;;4944858;28;86856;-51
2023/03/07 02:43:15;;;;;;;72.00;50.15;;;15.10;55.40;;;;;;4944715;28;87817;-50
2023/03/07 02:45:40;;;;;;;69.75;49.63;;;15.10;55.40;;;;;;4941740;28;86067;-49
2023/03/07 02:48:06;;;;;;;69.45;49.63;;;15.10;55.40;;;;;;4958227;28;92251;-52
2023/03/07 02:50:33;;;;;;;69.35;49.88;;;15.10;55.90;;;;;;4936094;28;87654;-50
2023/03/07 02:52:59;;;;;;;69.10;49.38;;;15.10;55.40;;;;;;4950847;28;86992;-51
2023/03/07 02:55:25;;;;;;;71.05;50.30;;;15.00;55.20;;;;;;4940609;28;87496;-50
2023/03/07 02:57:52;;;;;;;69.15;49.40;;;15.00;55.40;;;;;;4941837;28;89279;-51
2023/03/07 03:00:18;;;;;;;70.88;49.85;;;15.00;55.30;;;;;;4953234;28;88039;-48
2023/03/07 03:02:44;;;;;;;71.18;49.90;;;15.10;55.40;;;;;;4948829;28;86469;-50
2023/03/07 03:05:09;;;;;;;70.53;49.70;;;15.00;55.20;;;;;;4943033;28;87848;-50
2023/03/07 03:07:35;;;;;;;71.38;49.85;;;15.00;55.30;;;;;;4947911;28;86032;-50
2023/03/07 03:10:02;;;;;;;70.47;50.25;;;15.00;55.30;;;;;;4955614;28;86449;-51
2023/03/07 03:12:27;;;;;;;69.32;49.83;;;15.00;55.40;;;;;;4955280;28;86134;-51
2023/03/07 03:14:53;;;;;;;70.80;50.22;;;15.00;55.40;;;;;;4948895;28;88084;-51
2023/03/07 03:17:19;;;;;;;70.03;49.80;;;15.00;55.40;;;;;;4954110;28;86917;-52
2023/03/07 03:19:44;;;;;;;70.32;50.15;;;15.00;55.40;;;;;;4945146;28;86923;-51
2023/03/07 03:22:10;;;;;;;69.88;50.13;;;15.00;55.40;;;;;;4948509;28;86152;-50
2023/03/07 03:24:39;;;;;;;70.47;50.15;;;15.00;55.40;;;;;;4946452;28;86365;-48
2023/03/07 03:27:05;;;;;;;70.57;50.03;;;15.00;55.30;;;;;;4953486;28;85802;-48
2023/03/07 03:29:31;;;;;;;70.18;49.95;;;15.00;55.30;;;;;;4958714;28;86794;-50
2023/03/07 03:31:57;;;;;;;69.82;49.92;;;14.90;55.50;;;;;;4949484;28;87294;-51
2023/03/07 03:34:22;;;;;;;73.90;50.28;;;14.90;55.40;;;;;;4947577;28;88685;-50
2023/03/07 03:36:49;;;;;;;69.47;49.63;;;15.00;55.50;;;;;;4947982;28;86696;-48
2023/03/07 03:39:14;;;;;;;71.63;50.05;;;15.00;55.60;;;;;;4947655;28;86792;-50
2023/03/07 03:41:40;;;;;;;70.18;49.95;;;14.90;55.50;;;;;;4941166;28;85416;-50
2023/03/07 03:44:07;;;;;;;69.18;49.40;;;15.00;55.80;;;;;;4949853;28;86337;-52
2023/03/07 03:46:33;;;;;;;70.07;49.72;;;15.00;55.70;;;;;;4948224;28;87373;-50
2023/03/07 03:48:58;;;;;;;71.68;50.65;;;15.00;55.80;;;;;;4949030;28;87401;-51
2023/03/07 03:51:25;;;;;;;69.80;49.97;;;15.00;55.60;;;;;;4946028;28;86236;-52
2023/03/07 03:53:51;;;;;;;70.10;49.88;;;15.00;55.60;;;;;;4947935;28;88856;-52
2023/03/07 03:56:19;;;;;;;72.07;49.95;;;15.00;55.70;;;;;;4945786;28;88391;-49
2023/03/07 03:58:52;;;;;;;74.55;49.97;;;15.00;55.60;;;;;;4946935;28;86696;-51
2023/03/07 04:01:19;;;;;;;70.80;50.03;;;15.00;55.70;;;;;;4942204;28;88135;-52
2023/03/07 04:03:47;;;;;;;70.65;50.05;;;15.00;55.80;;;;;;4945962;28;87460;-48
2023/03/07 04:06:19;;;;;;;69.35;49.92;;;15.00;55.60;;;;;;4959510;28;88387;-51
2023/03/07 04:08:45;;;;;;;;;;;15.00;55.70;;;;;;4950284;28;87553;-51
2023/03/07 04:11:11;;;;;;;68.55;48.80;;;15.00;55.80;;;;;;4953322;28;86237;-52
2023/03/07 04:13:37;;;;;;;70.60;48.97;;;15.00;56.00;;;;;;4955254;28;88749;-47
2023/03/07 04:16:03;;;;;;;69.70;49.83;;;15.00;55.90;;;;;;4956151;28;90600;-52
2023/03/07 04:18:29;;;;;;;71.60;49.97;;;15.00;55.90;;;;;;4955083;28;87938;-49
2023/03/07 04:20:55;;;;;;;72.63;50.05;;;15.00;56.00;;;;;;4952790;28;85527;-52
2023/03/07 04:23:22;;;;;;;70.10;50.35;;;15.00;55.70;;;;;;4951249;28;86851;-50
2023/03/07 04:25:48;;;;;;;70.38;49.85;;;15.00;55.70;;;;;;4949624;28;87867;-52
2023/03/07 04:28:17;;;;;;;71.38;50.20;;;14.90;55.70;;;;;;4951910;28;91518;-50
2023/03/07 04:30:44;;;;;;;68.70;49.85;;;14.90;55.90;;;;;;4943141;28;90180;-50
2023/03/07 04:33:09;;;;;;;71.35;49.50;;;14.90;56.00;;;;;;4950735;28;85743;-53
2023/03/07 04:35:35;;;;;;;70.75;49.58;;;14.80;55.90;;;;;;4952220;28;87295;-51
2023/03/07 04:38:01;;;;;;;69.82;50.17;;;14.90;55.90;;;;;;4940593;28;88239;-47
2023/03/07 04:40:27;;;;;;;72.25;50.35;;;14.80;56.20;;;;;;4941623;28;89106;-53
2023/03/07 04:42:52;;;;;;;70.57;50.03;;;14.80;56.00;;;;;;4952467;28;86893;-51
2023/03/07 04:45:18;;;;;;;70.82;49.70;;;14.80;56.10;;;;;;4949150;28;85964;-51
2023/03/07 04:47:44;;;;;;;71.03;50.05;;;14.80;56.00;;;;;;4936964;28;89852;-52
2023/03/07 04:50:09;;;;;;;68.35;49.38;;;14.90;55.80;;;;;;4942739;28;87641;-51
2023/03/07 04:52:35;;;;;;;71.60;50.25;;;14.90;55.80;;;;;;4943784;28;87826;-51
2023/03/07 04:55:01;;;;;;;69.47;49.40;;;14.90;56.40;;;;;;4945216;28;87001;-49
2023/03/07 04:57:27;;;;;;;74.38;50.42;;;14.80;56.50;;;;;;4946157;28;87489;-51
2023/03/07 04:59:52;;;;;;;69.18;49.60;;;14.80;56.00;;;;;;4947970;28;86877;-49
2023/03/07 05:02:18;;;;;;;70.97;50.22;;;14.80;56.10;;;;;;4929976;28;88760;-53
2023/03/07 05:04:44;;;;;;;72.72;49.72;;;14.80;56.00;;;;;;4933676;28;89065;-51
2023/03/07 05:07:09;;;;;;;70.35;49.63;;;14.70;55.90;;;;;;4954166;28;86748;-51
2023/03/07 05:09:35;;;;;;;72.18;49.47;;;14.70;56.20;;;;;;4946546;28;88551;-49
2023/03/07 05:12:01;;;;;;;72.90;50.13;;;14.70;56.30;;;;;;4948280;28;85934;-52
2023/03/07 05:14:26;;;;;;;70.57;49.92;;;14.70;56.00;;;;;;4956250;28;86247;-51
2023/03/07 05:16:52;;;;;;;72.28;49.80;;;14.70;56.10;;;;;;4944382;28;92230;-53
2023/03/07 05:19:18;;;;;;;70.95;49.90;;;14.70;56.10;;;;;;4937776;28;86723;-51
2023/03/07 05:21:43;;;;;;;69.68;49.83;;;14.70;56.00;;;;;;4936957;28;87033;-49
2023/03/07 05:24:09;;;;;;;69.80;49.83;;;14.70;56.20;;;;;;4950658;28;86212;-48
2023/03/07 05:26:36;;;;;;;69.78;49.63;;;14.60;56.10;;;;;;4960317;28;87228;-52
2023/03/07 05:29:02;;;;;;;70.57;49.92;;;14.60;56.20;;;;;;4946440;28;85637;-49
2023/03/07 05:31:27;;;;;;;69.53;49.58;;;14.60;56.30;;;;;;4935650;28;90175;-49
2023/03/07 05:33:53;;;;;;;69.85;49.95;;;14.70;56.20;;;;;;4950924;28;86688;-47
2023/03/07 05:36:19;;;;;;;69.28;49.90;;;14.60;56.20;;;;;;4955834;28;85967;-50
2023/03/07 05:38:45;;;;;;;70.28;50.15;;;14.60;56.20;;;;;;4945689;28;90289;-51
2023/03/07 05:41:11;;;;;;;70.65;49.78;;;14.60;56.20;;;;;;4946277;28;88206;-52
2023/03/07 05:43:37;;;;;;;69.43;49.65;;;14.60;56.20;;;;;;4947739;28;85960;-52
2023/03/07 05:46:03;;;;;;;73.43;50.22;;;14.60;56.20;;;;;;4948143;28;93239;-50
2023/03/07 05:48:28;;;;;;;73.18;49.95;;;14.60;56.30;;;;;;4952424;28;87051;-47
2023/03/07 05:50:58;;;;;;;70.15;49.45;;;14.60;56.30;;;;;;4954168;28;85972;-52
2023/03/07 05:53:24;;;;;;;70.82;49.72;;;14.60;56.30;;;;;;4944081;28;87370;-52
2023/03/07 05:55:50;;;;;;;70.18;49.92;;;14.60;56.30;;;;;;4949301;28;87440;-51
2023/03/07 05:58:15;;;;;;;69.72;49.40;;;14.60;56.40;;;;;;4939382;28;93589;-52
2023/03/07 06:00:41;;;;;;;69.45;49.92;;;14.60;56.20;;;;;;4945524;28;89228;-50
2023/03/07 06:03:07;;;;;;;70.68;49.97;;;14.60;56.30;;;;;;4945540;28;87412;-52
2023/03/07 06:05:32;;;;;;;71.75;49.47;;;14.60;56.30;;;;;;4943381;28;87165;-52
2023/03/07 06:07:58;;;;;;;72.47;50.20;;;14.60;56.70;;;;;;4947971;28;87068;-52
2023/03/07 06:10:24;;;;;;;71.88;49.72;;;14.60;57.00;;;;;;4956989;28;85623;-51
2023/03/07 06:12:51;;;;;;;70.05;49.55;;;14.60;57.10;;;;;;4959338;28;86260;-51
2023/03/07 06:15:18;;;;;;;71.47;49.90;;;14.70;57.00;;;;;;4955366;28;86976;-52
2023/03/07 06:17:43;;;;;;;70.90;49.75;;;14.70;57.00;;;;;;4962582;28;87200;-49
2023/03/07 06:20:10;;;;;;;75.70;49.85;;;14.70;57.00;;;;;;4957967;28;86040;-51
2023/03/07 06:22:37;;;;;;;69.82;49.90;;;14.60;57.20;;;;;;4946653;28;87043;-50
2023/03/07 06:25:06;;;;;;;70.97;49.83;;;14.70;56.90;;;;;;4950515;28;86078;-50
2023/03/07 06:27:36;;;;;;;69.95;49.70;;;14.70;56.70;;;;;;4959469;28;86152;-50
2023/03/07 06:30:04;;;;;;;71.93;49.35;;;14.70;56.70;;;;;;4953216;28;86136;-52
2023/03/07 06:32:31;;;;;;;72.10;49.70;;;14.60;56.90;;;;;;4960860;28;89503;-48
2023/03/07 06:34:57;;;;;;;71.05;49.65;;;14.60;56.80;;;;;;4950042;28;86854;-48
2023/03/07 06:37:23;;;;;;;72.45;49.63;;;14.50;56.80;;;;;;4944416;28;86345;-49
2023/03/07 06:39:48;;;;;;;71.75;49.40;;;14.50;56.70;;;;;;4950232;28;86371;-51
2023/03/07 06:42:14;;;;;;;72.43;49.92;;;14.50;56.80;;;;;;4936671;28;86273;-49
2023/03/07 06:44:40;;;;;;;71.07;50.45;;;14.60;56.90;;;;;;4953250;28;88597;-51
2023/03/07 06:47:05;;;;;;;75.32;49.92;;;14.60;57.20;;;;;;4937154;28;94401;-48
2023/03/07 06:49:31;;;;;;;70.97;49.80;;;14.60;57.00;;;;;;4954601;28;87986;-51
2023/03/07 06:51:57;;;;;;;69.43;49.78;;;14.50;56.90;;;;;;4951017;28;87482;-49
2023/03/07 06:54:23;;;;;;;70.95;49.35;;;14.50;56.80;;;;;;4946245;28;87885;-51
2023/03/07 06:56:50;;;;;;;71.15;49.53;;;14.60;56.80;;;;;;4942394;28;87103;-49
2023/03/07 06:59:16;;;;;;;74.22;49.72;;;14.60;56.70;;;;;;4946661;28;86630;-50
2023/03/07 07:01:42;;;;;;;70.47;49.65;;;14.60;56.80;;;;;;4943427;28;85673;-47
2023/03/07 07:04:09;;;;;;;71.28;49.85;;;14.60;56.90;;;;;;4950024;28;89055;-50
2023/03/07 07:06:35;;;;;;;74.97;50.58;;;14.60;56.80;;;;;;4954290;28;88189;-48
2023/03/07 07:09:01;;;;;;;75.55;50.13;;;14.60;57.00;;;;;;4963134;28;85979;-50
2023/03/07 07:11:27;;;;;;;70.68;49.58;;;14.60;57.30;;;;;;4953406;28;86518;-49
2023/03/07 07:13:52;;;;;;;72.72;50.03;;;14.60;57.00;;;;;;4953430;28;85894;-51
2023/03/07 07:16:18;;;;;;;69.88;50.00;;;14.60;56.90;;;;;;4956242;28;85548;-50
2023/03/07 07:18:44;;;;;;;73.07;50.05;;;14.60;56.90;;;;;;4962713;28;86082;-53
2023/03/07 07:21:10;;;;;;;73.35;49.97;;;14.60;56.80;;;;;;4952844;28;86280;-52
2023/03/07 07:23:36;;;;;;;70.85;49.72;;;14.60;56.80;;;;;;4954380;28;85957;-48
2023/03/07 07:26:01;;;;;;;69.72;49.40;;;14.60;56.80;;;;;;4957695;28;87415;-49
2023/03/07 07:28:27;;;;;;;73.65;50.40;;;14.60;56.70;;;;;;4951120;28;86719;-51
2023/03/07 07:30:53;;;;;;;77.10;50.35;;;14.50;56.80;;;;;;4965510;28;85796;-51
2023/03/07 07:33:19;;;;;;;71.90;50.40;;;14.50;56.80;;;;;;4957933;28;88974;-50
2023/03/07 07:35:45;;;;;;;75.75;50.80;;;14.50;56.70;;;;;;4958587;28;86227;-50
2023/03/07 07:38:12;;;;;;;72.10;50.38;;;14.50;56.80;;;;;;4958918;28;88436;-50
2023/03/07 07:40:38;;;;;;;73.65;50.03;;;14.50;56.70;;;;;;4949173;28;85666;-50
2023/03/07 07:43:04;;;;;;;72.15;50.95;;;14.50;56.80;;;;;;4963397;28;87213;-46
2023/03/07 07:45:30;;;;;;;70.57;50.15;;;14.50;56.70;;;;;;4955283;28;86484;-50
2023/03/07 07:47:55;;;;;;;70.70;50.45;;;14.50;56.70;;;;;;4949345;28;87624;-49
2023/03/07 07:50:22;;;;;;;72.55;50.47;;;14.50;56.60;;;;;;4952717;28;87905;-51
2023/03/07 07:52:48;;;;;;;72.90;51.10;;;14.50;56.60;;;;;;4957358;28;87222;-47
2023/03/07 07:55:14;;;;;;;72.15;50.15;;;14.60;56.60;;;;;;4953789;28;85441;-49
2023/03/07 07:57:41;;;;;;;70.82;50.15;;;14.50;56.50;;;;;;4953364;28;85914;-49
2023/03/07 08:00:10;;;;;;;71.25;49.97;;;14.50;56.60;;;;;;4958969;28;85972;-51
2023/03/07 08:02:36;;;;;;;71.90;50.28;;;14.50;56.60;;;;;;4953918;28;88453;-50
2023/03/07 08:05:03;;;;;;;71.15;50.25;;;14.50;56.40;;;;;;4961823;28;86611;-52
2023/03/07 08:07:29;;;;;;;69.90;50.03;;;14.50;56.40;;;;;;4963335;28;86152;-51
2023/03/07 08:09:55;;;;;;;70.10;49.92;;;14.50;56.60;;;;;;4960827;28;85722;-51
2023/03/07 08:12:20;;;;;;;69.63;49.63;;;14.50;56.40;;;;;;4959206;28;85904;-52
2023/03/07 08:14:46;;;;;;;71.00;50.30;;;14.50;56.50;;;;;;4952528;28;89412;-51
2023/03/07 08:17:12;;;;;;;69.75;49.85;;;14.50;56.40;;;;;;4959248;28;87533;-50
2023/03/07 08:19:37;;;;;;;70.38;50.20;;;14.60;56.40;;;;;;4958738;28;88545;-50
2023/03/07 08:22:03;;;;;;;72.65;50.72;;;14.50;56.30;;;;;;4952643;28;85717;-50
2023/03/07 08:24:31;;;;;;;71.82;50.45;;;14.50;56.30;;;;;;4953692;28;91790;-52
2023/03/07 08:26:57;;;;;;;70.68;50.17;;;14.50;56.40;;;;;;4955328;28;85825;-52
2023/03/07 08:29:23;;;;;;;82.68;50.17;;;14.50;56.30;;;;;;4960022;28;87907;-53
2023/03/07 08:31:50;;;;;;;70.60;49.88;;;14.50;56.30;;;;;;4951294;28;87034;-46
2023/03/07 08:34:17;;;;;;;70.68;50.67;;;14.50;56.30;;;;;;4957121;28;86236;-50
2023/03/07 08:36:42;;;;;;;72.50;49.90;;;14.50;56.20;;;;;;4953548;28;86559;-48
2023/03/07 08:39:08;;;;;;;71.72;51.30;;;14.50;56.30;;;;;;4951763;28;85825;-49
2023/03/07 08:41:34;;;;;;;69.60;50.10;;;14.60;56.30;;;;;;4962776;28;86905;-49
2023/03/07 08:44:00;;;;;;;70.13;50.78;;;14.50;56.20;;;;;;4955733;28;85884;-51
2023/03/07 08:46:25;;;;;;;72.70;50.33;;;14.50;56.30;;;;;;4955551;28;87662;-51
2023/03/07 08:48:52;;;;;;;69.43;50.00;;;14.60;56.20;;;;;;4947108;28;88149;-50
2023/03/07 08:51:18;;;;;;;71.60;50.42;;;14.50;56.20;;;;;;4949435;28;86668;-51
2023/03/07 08:53:45;;;;;;;71.57;50.75;;;14.50;56.10;;;;;;4940956;28;86943;-49
2023/03/07 08:56:13;;;;;;;70.85;50.03;;;14.50;56.20;;;;;;4947256;28;86091;-47
2023/03/07 08:58:39;;;;;;;70.43;50.05;;;14.50;56.30;;;;;;4948950;28;86429;-49
2023/03/07 09:01:06;;;;;;;69.63;49.78;;;14.60;56.30;;;;;;4961041;28;85510;-50
2023/03/07 09:03:33;;;;;;;70.57;49.72;;;14.60;56.20;;;;;;4957848;28;85779;-51
2023/03/07 09:05:59;;;;;;;69.32;49.55;;;14.60;56.00;;;;;;4960226;28;85766;-49
2023/03/07 09:08:26;;;;;;;70.25;50.25;;;14.60;56.00;;;;;;4951841;28;86594;-49
2023/03/07 09:10:52;;;;;;;68.75;49.65;;;14.70;55.90;;;;;;4956133;28;86407;-49
2023/03/07 09:13:17;;;;;;;72.82;49.40;;;14.70;55.90;;;;;;4951753;28;85743;-51
2023/03/07 09:15:43;;;;;;;68.70;49.20;;;14.70;55.80;;;;;;4944321;28;86819;-49
2023/03/07 09:18:09;;;;;;;68.55;49.47;;;14.70;55.70;;;;;;4953446;28;87942;-52
2023/03/07 09:20:37;;;;;;;70.57;49.92;;;14.80;55.70;;;;;;4947790;28;86891;-51
2023/03/07 09:23:03;;;;;;;71.53;50.42;;;14.80;55.60;;;;;;4953104;28;86213;-51
2023/03/07 09:25:29;;;;;;;69.35;49.72;;;14.80;55.50;;;;;;4951007;28;86279;-49
2023/03/07 09:27:55;;;;;;;68.45;49.05;;;14.80;55.60;;;;;;4949761;28;86363;-50
2023/03/07 09:30:21;;;;;;;70.60;49.72;;;14.80;55.50;;;;;;4949761;28;85850;-50
2023/03/07 09:32:48;;;;;;;68.75;49.35;;;14.80;55.50;;;;;;4950406;28;87327;-48
2023/03/07 09:35:14;;;;;;;70.45;49.83;;;14.80;55.50;;;;;;4955367;28;89254;-49
2023/03/07 09:37:40;;;;;;;69.07;49.72;;;14.80;55.60;;;;;;4958822;28;87414;-50
2023/03/07 09:40:06;;;;;;;69.75;49.45;;;14.70;55.60;;;;;;4948337;28;92637;-50
2023/03/07 09:43:05;;;;;;;69.07;49.55;;;14.70;55.60;;;;;;4952448;28;85629;-49
2023/03/07 09:45:57;;;;;;;69.20;49.03;;;14.70;55.60;;;;;;4941902;28;86058;-50
2023/03/07 09:48:46;;;;;;;;;;;14.70;55.60;;;;;;4947169;28;87219;-50
2023/03/07 09:51:37;;;;;;;70.03;50.03;;;14.80;55.50;;;;;;4957937;28;86526;-51
2023/03/07 09:54:19;;;;;;;67.85;49.28;;;14.80;55.50;;;;;;4939465;28;85912;-51
2023/03/07 09:56:56;;;;;;;68.97;49.53;;;14.70;55.60;;;;;;4952965;28;85790;-51
2023/03/07 10:00:06;;;;;;;70.47;49.53;;;14.70;55.70;;;;;;4956669;28;86239;-50
2023/03/07 10:03:02;;;;;;;69.90;49.95;;;14.70;55.70;;;;;;4959584;28;88015;-49
2023/03/07 10:05:43;;;;;;;69.25;49.67;;;14.60;55.80;;;;;;4951789;28;86381;-47
2023/03/07 10:08:22;;;;;;;70.93;49.72;;;14.60;55.70;;;;;;4961031;28;85433;-51
2023/03/07 10:10:57;;;;;;;68.57;49.38;;;14.60;55.80;;;;;;4946263;28;85724;-49
2023/03/07 10:13:39;;;;;;;70.65;49.58;;;14.60;55.70;;;;;;4953789;28;86641;-50
2023/03/07 10:16:16;;;;;;;67.65;48.83;;;14.60;55.70;;;;;;4955680;28;87985;-47
2023/03/07 10:18:47;;;;;;;67.88;48.78;;;14.60;55.70;;;;;;4950551;28;85744;-50
2023/03/07 10:21:24;;;;;;;68.68;48.88;;;14.70;55.80;;;;;;4948359;28;86599;-50
2023/03/07 10:24:10;;;;;;;67.88;48.58;;;14.60;55.70;;;;;;4953691;28;88827;-48
2023/03/07 10:26:54;;;;;;;68.47;48.60;;;14.60;55.70;;;;;;4951792;28;86911;-52
2023/03/07 10:29:25;;;;;;;68.18;48.75;;;14.60;55.70;;;;;;4955833;28;86833;-49
2023/03/07 10:31:55;;;;;;;68.30;48.92;;;14.60;55.90;;;;;;4964009;28;86872;-50
2023/03/07 10:34:27;;;;;;;67.53;48.58;;;14.60;55.90;;;;;;4962529;28;90124;-51
2023/03/07 10:37:00;;;;;;;71.07;49.17;;;14.50;55.70;;;;;;4961645;28;88701;-47
2023/03/07 10:39:39;;;;;;;67.20;48.58;;;14.60;55.90;;;;;;4952188;28;85400;-49
2023/03/07 10:42:11;;;;;;;67.45;48.90;;;14.70;55.70;;;;;;4948240;28;85770;-51
2023/03/07 10:44:37;;;;;;;;;;;14.80;55.30;;;;;;4957918;28;88202;-51
2023/03/07 10:47:03;;;;;;;67.13;48.50;;;14.90;55.20;;;;;;4954654;28;85262;-51
2023/03/07 10:49:31;;;;;;;68.25;48.60;;;14.90;55.10;;;;;;4958863;28;85507;-51
2023/03/07 10:51:59;;;;;;;68.55;48.72;;;14.90;55.10;;;;;;4957258;28;85304;-52
2023/03/07 10:54:38;;;;;;;68.55;48.83;;;14.90;55.10;;;;;;4955585;28;86335;-52
2023/03/07 10:57:27;;;;;;;68.72;49.20;;;14.90;55.10;;;;;;4957489;28;86562;-51
2023/03/07 10:59:52;;;;;;;67.72;48.65;;;14.90;55.10;;;;;;4955268;28;86724;-51
2023/03/07 11:02:33;;;;;;;68.50;48.78;;;14.90;55.00;;;;;;4951307;28;85548;-50
2023/03/07 11:04:59;;;;;;;69.30;48.75;;;15.00;55.00;;;;;;4956901;28;86832;-50
2023/03/07 11:07:34;;;;;;;68.18;48.40;;;14.90;55.00;;;;;;4957631;28;85913;-52
2023/03/07 11:10:20;;;;;;;68.80;48.92;;;14.90;55.00;;;;;;4955749;28;87738;-51
2023/03/07 11:12:47;;;;;;;68.50;48.80;;;14.90;55.00;;;;;;4957727;28;88851;-50
2023/03/07 11:15:23;;;;;;;69.00;48.83;;;14.90;54.90;;;;;;4966091;28;85962;-51
2023/03/07 11:17:50;;;;;;;67.75;48.45;;;15.00;54.80;;;;;;4950440;28;86348;-52
2023/03/07 11:20:26;;;;;;;69.05;49.03;;;15.10;54.70;;;;;;4955515;28;88226;-51
2023/03/07 11:23:18;;;;;;;69.50;48.88;;;15.00;54.50;;;;;;4955102;28;88692;-51
2023/03/07 11:25:44;;;;;;;68.30;48.72;;;15.00;54.50;;;;;;4959023;28;86711;-51
2023/03/07 11:28:32;;;;;;;68.72;49.03;;;15.00;54.70;;;;;;4962960;28;88159;-51
2023/03/07 11:31:16;;;;;;;68.82;48.83;;;15.00;54.90;;;;;;4967480;28;86890;-52
2023/03/07 11:34:27;;;;;;;69.22;48.80;;;14.90;55.00;;;;;;4943848;28;86431;-49
2023/03/07 11:37:32;;;;;;;67.78;48.42;;;14.90;55.60;;;;;;4956640;28;86079;-50
2023/03/07 11:40:11;;;;;;;67.80;48.75;;;14.90;55.10;;;;;;4953083;28;86915;-50
2023/03/07 11:42:49;;;;;;;67.95;48.65;;;14.90;55.20;;;;;;4951447;28;91883;-48
2023/03/07 11:45:34;;;;;;;67.45;48.45;;;14.80;55.30;;;;;;4966247;28;85323;-51
2023/03/07 11:48:39;;;;;;;69.43;48.60;;;14.80;55.30;;;;;;4956808;28;86697;-50
2023/03/07 11:51:12;;;;;;;66.85;48.38;;;14.90;55.20;;;;;;4957484;28;86357;-50
2023/03/07 11:53:54;;;;;;;67.72;48.65;;;14.80;55.20;;;;;;4959211;28;85892;-50
2023/03/07 11:56:49;;;;;;;67.32;48.35;;;14.80;55.20;;;;;;4953804;28;85901;-47
2023/03/07 11:59:15;;;;;;;69.40;49.17;;;14.80;55.30;;;;;;4948179;28;88024;-50
2023/03/07 12:01:49;;;;;;;67.35;48.45;;;14.80;55.30;;;;;;4951364;28;86351;-50
2023/03/07 12:04:26;;;;;;;67.78;48.70;;;14.80;55.30;;;;;;4951551;28;87026;-47
2023/03/07 12:07:01;;;;;;;67.93;48.72;;;14.80;55.20;;;;;;4951731;28;86266;-51
2023/03/07 12:10:07;;;;;;;68.72;49.17;;;14.80;55.20;;;;;;4950885;28;87882;-49
2023/03/07 12:13:14;;;;;;;67.70;48.50;;;14.80;55.30;;;;;;4942889;28;85471;-48
2023/03/07 12:15:58;;;;;;;67.88;48.75;;;14.80;55.30;;;;;;4946341;28;87004;-50
2023/03/07 12:18:24;;;;;;;68.13;48.85;;;14.80;55.20;;;;;;4960438;28;86092;-47
2023/03/07 12:20:49;;;;;;;68.40;48.83;;;14.80;55.20;;;;;;4951666;28;86576;-51
2023/03/07 12:23:21;;;;;;;67.78;48.55;;;14.90;55.20;;;;;;4957954;28;85514;-50
2023/03/07 12:26:12;;;;;;;67.75;48.80;;;14.90;55.10;;;;;;4949189;28;85768;-48
2023/03/07 12:28:49;;;;;;;;;;;15.00;54.90;;;;;;4954911;28;88867;-50
2023/03/07 12:31:33;;;;;;;67.25;48.20;;;15.10;54.60;;;;;;4961788;28;87203;-50
2023/03/07 12:34:01;;;;;;;67.75;48.55;;;15.10;54.70;;;;;;4955947;28;87214;-50
2023/03/07 12:36:51;;;;;;;68.05;48.65;;;15.00;54.70;;;;;;4950562;28;87532;-51
2023/03/07 12:39:29;;;;;;;67.45;48.45;;;15.10;54.70;;;;;;4951982;28;87141;-49
2023/03/07 12:42:19;;;;;;;68.38;48.47;;;15.10;54.70;;;;;;4948669;28;85780;-47